sensor_id;sensor_type;location;lat;lon;timestamp;P1;durP1;ratioP1;P2;durP2;ratioP2
54372;SDS011;40271;48.798;10.178;2022-07-10T00:02:10;4.15;;;3.70;;
54372;SDS011;40271;48.798;10.178;2022-07-10T00:04:36;4.68;;;4.10;;
54372;SDS011;40271;48.798;10.178;2022-07-10T00:07:03;5.00;;;3.63;;
54372;SDS011;40271;48.798;10.178;2022-07-10T00:09:29;4.97;;;3.95;;
54372;SDS011;40271;48.798;10.178;2022-07-10T00:11:55;6.55;;;4.30;;
54372;SDS011;40271;48.798;10.178;2022-07-10T00:14:22;5.55;;;4.05;;
54372;SDS011;40271;48.798;10.178;2022-07-10T00:16:48;4.78;;;4.00;;
54372;SDS011;40271;48.798;10.178;2022-07-10T00:19:14;6.32;;;4.88;;
54372;SDS011;40271;48.798;10.178;2022-07-10T00:21:40;5.82;;;4.55;;
54372;SDS011;40271;48.798;10.178;2022-07-10T00:24:06;4.82;;;4.15;;
54372;SDS011;40271;48.798;10.178;2022-07-10T00:26:32;7.10;;;4.95;;
54372;SDS011;40271;48.798;10.178;2022-07-10T00:28:58;7.03;;;4.50;;
54372;SDS011;40271;48.798;10.178;2022-07-10T00:31:24;6.57;;;5.15;;
54372;SDS011;40271;48.798;10.178;2022-07-10T00:33:50;6.18;;;4.88;;
54372;SDS011;40271;48.798;10.178;2022-07-10T00:36:16;5.65;;;4.57;;
54372;SDS011;40271;48.798;10.178;2022-07-10T00:38:42;6.03;;;4.60;;
54372;SDS011;40271;48.798;10.178;2022-07-10T00:41:08;6.43;;;4.85;;
54372;SDS011;40271;48.798;10.178;2022-07-10T00:43:56;6.38;;;5.00;;
54372;SDS011;40271;48.798;10.178;2022-07-10T00:46:21;6.93;;;4.80;;
54372;SDS011;40271;48.798;10.178;2022-07-10T00:48:48;5.88;;;4.30;;
54372;SDS011;40271;48.798;10.178;2022-07-10T00:51:17;6.30;;;4.78;;
54372;SDS011;40271;48.798;10.178;2022-07-10T00:53:44;6.93;;;5.03;;
54372;SDS011;40271;48.798;10.178;2022-07-10T00:56:11;7.78;;;5.40;;
54372;SDS011;40271;48.798;10.178;2022-07-10T00:58:37;6.80;;;5.22;;
54372;SDS011;40271;48.798;10.178;2022-07-10T01:01:06;6.22;;;5.05;;
54372;SDS011;40271;48.798;10.178;2022-07-10T01:03:33;5.85;;;4.80;;
54372;SDS011;40271;48.798;10.178;2022-07-10T01:05:59;6.25;;;4.78;;
54372;SDS011;40271;48.798;10.178;2022-07-10T01:08:25;7.00;;;5.25;;
54372;SDS011;40271;48.798;10.178;2022-07-10T01:10:51;7.82;;;5.30;;
54372;SDS011;40271;48.798;10.178;2022-07-10T01:13:17;6.40;;;5.05;;
54372;SDS011;40271;48.798;10.178;2022-07-10T01:15:43;6.65;;;5.25;;
54372;SDS011;40271;48.798;10.178;2022-07-10T01:18:10;6.53;;;5.28;;
54372;SDS011;40271;48.798;10.178;2022-07-10T01:20:36;7.97;;;5.20;;
54372;SDS011;40271;48.798;10.178;2022-07-10T01:23:02;8.30;;;5.50;;
54372;SDS011;40271;48.798;10.178;2022-07-10T01:25:28;7.35;;;5.50;;
54372;SDS011;40271;48.798;10.178;2022-07-10T01:27:54;7.68;;;5.55;;
54372;SDS011;40271;48.798;10.178;2022-07-10T01:30:21;9.75;;;5.93;;
54372;SDS011;40271;48.798;10.178;2022-07-10T01:32:47;7.43;;;5.15;;
54372;SDS011;40271;48.798;10.178;2022-07-10T01:35:13;8.00;;;5.60;;
54372;SDS011;40271;48.798;10.178;2022-07-10T01:37:39;8.52;;;5.25;;
54372;SDS011;40271;48.798;10.178;2022-07-10T01:40:06;7.72;;;5.80;;
54372;SDS011;40271;48.798;10.178;2022-07-10T01:42:32;7.32;;;5.60;;
54372;SDS011;40271;48.798;10.178;2022-07-10T01:44:58;8.10;;;5.60;;
54372;SDS011;40271;48.798;10.178;2022-07-10T01:47:24;6.60;;;5.22;;
54372;SDS011;40271;48.798;10.178;2022-07-10T01:49:52;7.93;;;5.70;;
54372;SDS011;40271;48.798;10.178;2022-07-10T01:52:19;6.85;;;5.72;;
54372;SDS011;40271;48.798;10.178;2022-07-10T01:54:45;8.60;;;5.95;;
54372;SDS011;40271;48.798;10.178;2022-07-10T01:57:12;7.35;;;5.60;;
54372;SDS011;40271;48.798;10.178;2022-07-10T01:59:38;9.27;;;5.88;;
54372;SDS011;40271;48.798;10.178;2022-07-10T02:02:04;7.80;;;5.82;;
54372;SDS011;40271;48.798;10.178;2022-07-10T02:04:31;8.65;;;5.82;;
54372;SDS011;40271;48.798;10.178;2022-07-10T02:07:09;8.75;;;6.40;;
54372;SDS011;40271;48.798;10.178;2022-07-10T02:09:36;8.43;;;6.45;;
54372;SDS011;40271;48.798;10.178;2022-07-10T02:12:04;9.50;;;6.47;;
54372;SDS011;40271;48.798;10.178;2022-07-10T02:14:30;12.35;;;7.82;;
54372;SDS011;40271;48.798;10.178;2022-07-10T02:16:56;12.40;;;7.25;;
54372;SDS011;40271;48.798;10.178;2022-07-10T02:19:22;9.65;;;6.55;;
54372;SDS011;40271;48.798;10.178;2022-07-10T02:21:48;10.10;;;6.25;;
54372;SDS011;40271;48.798;10.178;2022-07-10T02:24:14;10.55;;;6.50;;
54372;SDS011;40271;48.798;10.178;2022-07-10T02:26:40;10.23;;;6.22;;
54372;SDS011;40271;48.798;10.178;2022-07-10T02:29:06;8.35;;;6.07;;
54372;SDS011;40271;48.798;10.178;2022-07-10T02:31:32;7.68;;;5.97;;
54372;SDS011;40271;48.798;10.178;2022-07-10T02:34:00;9.73;;;7.03;;
54372;SDS011;40271;48.798;10.178;2022-07-10T02:36:26;9.30;;;7.07;;
54372;SDS011;40271;48.798;10.178;2022-07-10T02:38:52;10.65;;;7.05;;
54372;SDS011;40271;48.798;10.178;2022-07-10T02:41:18;10.90;;;6.72;;
54372;SDS011;40271;48.798;10.178;2022-07-10T02:43:44;9.98;;;6.15;;
54372;SDS011;40271;48.798;10.178;2022-07-10T02:46:10;9.10;;;6.78;;
54372;SDS011;40271;48.798;10.178;2022-07-10T02:48:36;10.80;;;7.72;;
54372;SDS011;40271;48.798;10.178;2022-07-10T02:51:02;10.60;;;7.38;;
54372;SDS011;40271;48.798;10.178;2022-07-10T02:53:28;11.30;;;7.30;;
54372;SDS011;40271;48.798;10.178;2022-07-10T02:55:54;10.15;;;7.00;;
54372;SDS011;40271;48.798;10.178;2022-07-10T02:58:20;9.30;;;6.72;;
54372;SDS011;40271;48.798;10.178;2022-07-10T03:00:46;11.50;;;7.63;;
54372;SDS011;40271;48.798;10.178;2022-07-10T03:03:12;12.13;;;7.63;;
54372;SDS011;40271;48.798;10.178;2022-07-10T03:05:38;11.05;;;7.00;;
54372;SDS011;40271;48.798;10.178;2022-07-10T03:08:04;10.73;;;7.38;;
54372;SDS011;40271;48.798;10.178;2022-07-10T03:10:30;11.98;;;7.68;;
54372;SDS011;40271;48.798;10.178;2022-07-10T03:12:56;13.35;;;7.05;;
54372;SDS011;40271;48.798;10.178;2022-07-10T03:15:22;12.70;;;7.80;;
54372;SDS011;40271;48.798;10.178;2022-07-10T03:17:49;11.65;;;6.90;;
54372;SDS011;40271;48.798;10.178;2022-07-10T03:20:15;8.88;;;6.65;;
54372;SDS011;40271;48.798;10.178;2022-07-10T03:22:41;10.07;;;6.95;;
54372;SDS011;40271;48.798;10.178;2022-07-10T03:25:07;10.02;;;7.15;;
54372;SDS011;40271;48.798;10.178;2022-07-10T03:27:33;9.25;;;6.45;;
54372;SDS011;40271;48.798;10.178;2022-07-10T03:29:59;11.27;;;7.25;;
54372;SDS011;40271;48.798;10.178;2022-07-10T03:32:26;10.50;;;7.20;;
54372;SDS011;40271;48.798;10.178;2022-07-10T03:34:52;11.70;;;7.93;;
54372;SDS011;40271;48.798;10.178;2022-07-10T03:37:18;10.02;;;6.80;;
54372;SDS011;40271;48.798;10.178;2022-07-10T03:39:44;10.23;;;7.32;;
54372;SDS011;40271;48.798;10.178;2022-07-10T03:42:10;12.48;;;7.20;;
54372;SDS011;40271;48.798;10.178;2022-07-10T03:44:36;12.02;;;7.05;;
54372;SDS011;40271;48.798;10.178;2022-07-10T03:47:02;10.98;;;6.65;;
54372;SDS011;40271;48.798;10.178;2022-07-10T03:49:28;9.88;;;6.78;;
54372;SDS011;40271;48.798;10.178;2022-07-10T03:51:54;8.70;;;6.90;;
54372;SDS011;40271;48.798;10.178;2022-07-10T03:54:24;11.18;;;7.00;;
54372;SDS011;40271;48.798;10.178;2022-07-10T03:56:50;9.88;;;6.93;;
54372;SDS011;40271;48.798;10.178;2022-07-10T03:59:34;7.85;;;5.88;;
54372;SDS011;40271;48.798;10.178;2022-07-10T04:02:00;9.73;;;5.85;;
54372;SDS011;40271;48.798;10.178;2022-07-10T04:04:26;9.95;;;5.93;;
54372;SDS011;40271;48.798;10.178;2022-07-10T04:06:53;9.45;;;6.28;;
54372;SDS011;40271;48.798;10.178;2022-07-10T04:09:19;8.07;;;5.85;;
54372;SDS011;40271;48.798;10.178;2022-07-10T04:11:45;11.18;;;6.50;;
54372;SDS011;40271;48.798;10.178;2022-07-10T04:14:11;10.15;;;6.50;;
54372;SDS011;40271;48.798;10.178;2022-07-10T04:16:37;10.32;;;6.25;;
54372;SDS011;40271;48.798;10.178;2022-07-10T04:19:03;9.25;;;6.82;;
54372;SDS011;40271;48.798;10.178;2022-07-10T04:21:29;10.32;;;6.68;;
54372;SDS011;40271;48.798;10.178;2022-07-10T04:23:55;9.45;;;5.95;;
54372;SDS011;40271;48.798;10.178;2022-07-10T04:26:21;8.88;;;5.40;;
54372;SDS011;40271;48.798;10.178;2022-07-10T04:28:47;9.43;;;5.65;;
54372;SDS011;40271;48.798;10.178;2022-07-10T04:31:13;8.23;;;5.70;;
54372;SDS011;40271;48.798;10.178;2022-07-10T04:33:39;8.60;;;5.22;;
54372;SDS011;40271;48.798;10.178;2022-07-10T04:36:05;8.15;;;4.63;;
54372;SDS011;40271;48.798;10.178;2022-07-10T04:38:31;8.95;;;5.88;;
54372;SDS011;40271;48.798;10.178;2022-07-10T04:40:58;7.90;;;4.90;;
54372;SDS011;40271;48.798;10.178;2022-07-10T04:43:24;7.47;;;5.05;;
54372;SDS011;40271;48.798;10.178;2022-07-10T04:45:50;8.25;;;5.32;;
54372;SDS011;40271;48.798;10.178;2022-07-10T04:48:16;8.30;;;4.68;;
54372;SDS011;40271;48.798;10.178;2022-07-10T04:50:42;7.60;;;4.32;;
54372;SDS011;40271;48.798;10.178;2022-07-10T04:53:08;8.05;;;5.10;;
54372;SDS011;40271;48.798;10.178;2022-07-10T04:55:34;6.78;;;4.57;;
54372;SDS011;40271;48.798;10.178;2022-07-10T04:58:00;8.60;;;4.55;;
54372;SDS011;40271;48.798;10.178;2022-07-10T05:00:26;7.05;;;4.30;;
54372;SDS011;40271;48.798;10.178;2022-07-10T05:02:52;10.60;;;5.05;;
54372;SDS011;40271;48.798;10.178;2022-07-10T05:05:18;9.13;;;4.60;;
54372;SDS011;40271;48.798;10.178;2022-07-10T05:07:44;8.85;;;4.47;;
54372;SDS011;40271;48.798;10.178;2022-07-10T05:10:10;7.30;;;4.00;;
54372;SDS011;40271;48.798;10.178;2022-07-10T05:12:36;6.57;;;4.30;;
54372;SDS011;40271;48.798;10.178;2022-07-10T05:15:02;8.80;;;5.00;;
54372;SDS011;40271;48.798;10.178;2022-07-10T05:17:29;6.97;;;4.25;;
54372;SDS011;40271;48.798;10.178;2022-07-10T05:19:56;6.57;;;3.90;;
54372;SDS011;40271;48.798;10.178;2022-07-10T05:22:23;5.28;;;3.80;;
54372;SDS011;40271;48.798;10.178;2022-07-10T05:24:50;5.82;;;3.88;;
54372;SDS011;40271;48.798;10.178;2022-07-10T05:27:16;6.55;;;4.00;;
54372;SDS011;40271;48.798;10.178;2022-07-10T05:29:46;5.57;;;3.63;;
54372;SDS011;40271;48.798;10.178;2022-07-10T05:32:12;8.25;;;4.70;;
54372;SDS011;40271;48.798;10.178;2022-07-10T05:34:38;7.13;;;5.07;;
54372;SDS011;40271;48.798;10.178;2022-07-10T05:37:04;6.85;;;4.38;;
54372;SDS011;40271;48.798;10.178;2022-07-10T05:39:32;6.32;;;4.25;;
54372;SDS011;40271;48.798;10.178;2022-07-10T05:41:58;8.45;;;4.60;;
54372;SDS011;40271;48.798;10.178;2022-07-10T05:44:24;8.25;;;4.97;;
54372;SDS011;40271;48.798;10.178;2022-07-10T05:46:50;7.32;;;4.78;;
54372;SDS011;40271;48.798;10.178;2022-07-10T05:49:16;6.93;;;4.25;;
54372;SDS011;40271;48.798;10.178;2022-07-10T05:51:42;7.85;;;4.35;;
54372;SDS011;40271;48.798;10.178;2022-07-10T05:54:08;7.32;;;4.32;;
54372;SDS011;40271;48.798;10.178;2022-07-10T05:56:34;5.55;;;3.80;;
54372;SDS011;40271;48.798;10.178;2022-07-10T05:59:00;9.55;;;4.47;;
54372;SDS011;40271;48.798;10.178;2022-07-10T06:01:26;5.30;;;4.20;;
54372;SDS011;40271;48.798;10.178;2022-07-10T06:03:52;6.88;;;4.13;;
54372;SDS011;40271;48.798;10.178;2022-07-10T06:06:18;6.15;;;4.10;;
54372;SDS011;40271;48.798;10.178;2022-07-10T06:08:44;6.97;;;4.47;;
54372;SDS011;40271;48.798;10.178;2022-07-10T06:11:11;7.80;;;4.35;;
54372;SDS011;40271;48.798;10.178;2022-07-10T06:13:38;8.45;;;4.53;;
54372;SDS011;40271;48.798;10.178;2022-07-10T06:16:04;8.20;;;4.43;;
54372;SDS011;40271;48.798;10.178;2022-07-10T06:18:30;5.15;;;4.03;;
54372;SDS011;40271;48.798;10.178;2022-07-10T06:20:57;8.73;;;4.47;;
54372;SDS011;40271;48.798;10.178;2022-07-10T06:23:23;8.15;;;4.63;;
54372;SDS011;40271;48.798;10.178;2022-07-10T06:25:49;5.15;;;4.13;;
54372;SDS011;40271;48.798;10.178;2022-07-10T06:28:16;5.25;;;3.75;;
54372;SDS011;40271;48.798;10.178;2022-07-10T06:30:42;6.82;;;4.05;;
54372;SDS011;40271;48.798;10.178;2022-07-10T06:33:08;5.32;;;3.40;;
54372;SDS011;40271;48.798;10.178;2022-07-10T06:35:35;4.32;;;3.17;;
54372;SDS011;40271;48.798;10.178;2022-07-10T06:38:01;6.70;;;3.55;;
54372;SDS011;40271;48.798;10.178;2022-07-10T06:40:28;3.88;;;2.80;;
54372;SDS011;40271;48.798;10.178;2022-07-10T06:42:54;5.53;;;3.00;;
54372;SDS011;40271;48.798;10.178;2022-07-10T06:45:21;4.57;;;2.90;;
54372;SDS011;40271;48.798;10.178;2022-07-10T06:47:47;4.28;;;2.70;;
54372;SDS011;40271;48.798;10.178;2022-07-10T06:50:23;4.95;;;2.97;;
54372;SDS011;40271;48.798;10.178;2022-07-10T06:52:50;4.20;;;2.95;;
54372;SDS011;40271;48.798;10.178;2022-07-10T06:55:17;5.95;;;2.45;;
54372;SDS011;40271;48.798;10.178;2022-07-10T06:57:44;4.85;;;2.97;;
54372;SDS011;40271;48.798;10.178;2022-07-10T07:00:10;4.38;;;2.60;;
54372;SDS011;40271;48.798;10.178;2022-07-10T07:02:36;4.20;;;2.50;;
54372;SDS011;40271;48.798;10.178;2022-07-10T07:05:02;2.90;;;2.28;;
54372;SDS011;40271;48.798;10.178;2022-07-10T07:07:28;3.83;;;2.95;;
54372;SDS011;40271;48.798;10.178;2022-07-10T07:09:55;2.72;;;2.10;;
54372;SDS011;40271;48.798;10.178;2022-07-10T07:12:21;4.20;;;2.20;;
54372;SDS011;40271;48.798;10.178;2022-07-10T07:14:47;3.50;;;1.95;;
54372;SDS011;40271;48.798;10.178;2022-07-10T07:17:13;3.05;;;2.13;;
54372;SDS011;40271;48.798;10.178;2022-07-10T07:19:46;3.72;;;2.13;;
54372;SDS011;40271;48.798;10.178;2022-07-10T07:22:30;3.60;;;2.10;;
54372;SDS011;40271;48.798;10.178;2022-07-10T07:25:15;3.75;;;1.90;;
54372;SDS011;40271;48.798;10.178;2022-07-10T07:27:41;6.30;;;2.08;;
54372;SDS011;40271;48.798;10.178;2022-07-10T07:30:08;2.85;;;1.73;;
54372;SDS011;40271;48.798;10.178;2022-07-10T07:32:41;2.53;;;1.45;;
54372;SDS011;40271;48.798;10.178;2022-07-10T07:35:08;2.25;;;1.42;;
54372;SDS011;40271;48.798;10.178;2022-07-10T07:40:04;2.60;;;1.48;;
54372;SDS011;40271;48.798;10.178;2022-07-10T07:42:30;2.88;;;1.35;;
54372;SDS011;40271;48.798;10.178;2022-07-10T07:44:57;4.07;;;1.50;;
54372;SDS011;40271;48.798;10.178;2022-07-10T07:47:23;1.98;;;1.30;;
54372;SDS011;40271;48.798;10.178;2022-07-10T07:49:49;5.43;;;1.27;;
54372;SDS011;40271;48.798;10.178;2022-07-10T07:52:15;2.90;;;1.30;;
54372;SDS011;40271;48.798;10.178;2022-07-10T07:54:41;2.08;;;1.13;;
54372;SDS011;40271;48.798;10.178;2022-07-10T07:57:07;2.55;;;1.13;;
54372;SDS011;40271;48.798;10.178;2022-07-10T07:59:33;3.00;;;1.17;;
54372;SDS011;40271;48.798;10.178;2022-07-10T08:02:00;2.72;;;1.40;;
54372;SDS011;40271;48.798;10.178;2022-07-10T08:04:26;2.90;;;1.20;;
54372;SDS011;40271;48.798;10.178;2022-07-10T08:06:52;2.28;;;1.25;;
54372;SDS011;40271;48.798;10.178;2022-07-10T08:09:19;1.27;;;1.15;;
54372;SDS011;40271;48.798;10.178;2022-07-10T08:11:45;1.63;;;1.30;;
54372;SDS011;40271;48.798;10.178;2022-07-10T08:14:11;1.85;;;1.10;;
54372;SDS011;40271;48.798;10.178;2022-07-10T08:16:37;2.08;;;1.17;;
54372;SDS011;40271;48.798;10.178;2022-07-10T08:19:03;1.88;;;1.33;;
54372;SDS011;40271;48.798;10.178;2022-07-10T08:21:29;1.55;;;1.02;;
54372;SDS011;40271;48.798;10.178;2022-07-10T08:23:56;2.00;;;1.23;;
54372;SDS011;40271;48.798;10.178;2022-07-10T08:26:22;2.95;;;1.20;;
54372;SDS011;40271;48.798;10.178;2022-07-10T08:28:48;1.98;;;1.20;;
54372;SDS011;40271;48.798;10.178;2022-07-10T08:31:14;2.80;;;1.08;;
54372;SDS011;40271;48.798;10.178;2022-07-10T08:33:40;2.22;;;1.13;;
54372;SDS011;40271;48.798;10.178;2022-07-10T08:36:06;2.95;;;1.60;;
54372;SDS011;40271;48.798;10.178;2022-07-10T08:38:32;5.93;;;1.50;;
54372;SDS011;40271;48.798;10.178;2022-07-10T08:40:58;1.73;;;1.20;;
54372;SDS011;40271;48.798;10.178;2022-07-10T08:43:27;2.78;;;1.20;;
54372;SDS011;40271;48.798;10.178;2022-07-10T08:45:53;1.55;;;1.38;;
54372;SDS011;40271;48.798;10.178;2022-07-10T08:48:21;3.92;;;1.30;;
54372;SDS011;40271;48.798;10.178;2022-07-10T08:50:49;1.48;;;1.15;;
54372;SDS011;40271;48.798;10.178;2022-07-10T08:53:50;2.08;;;1.15;;
54372;SDS011;40271;48.798;10.178;2022-07-10T08:56:09;2.10;;;1.10;;
54372;SDS011;40271;48.798;10.178;2022-07-10T08:58:36;2.22;;;1.27;;
54372;SDS011;40271;48.798;10.178;2022-07-10T09:01:02;1.77;;;1.00;;
54372;SDS011;40271;48.798;10.178;2022-07-10T09:03:29;2.38;;;1.27;;
54372;SDS011;40271;48.798;10.178;2022-07-10T09:05:56;3.95;;;1.58;;
54372;SDS011;40271;48.798;10.178;2022-07-10T09:08:26;1.55;;;1.10;;
54372;SDS011;40271;48.798;10.178;2022-07-10T09:11:12;2.08;;;1.20;;
54372;SDS011;40271;48.798;10.178;2022-07-10T09:13:48;2.55;;;1.10;;
54372;SDS011;40271;48.798;10.178;2022-07-10T09:16:25;1.30;;;1.20;;
54372;SDS011;40271;48.798;10.178;2022-07-10T09:18:51;3.85;;;1.40;;
54372;SDS011;40271;48.798;10.178;2022-07-10T09:21:17;2.78;;;1.25;;
54372;SDS011;40271;48.798;10.178;2022-07-10T09:23:43;2.28;;;1.30;;
54372;SDS011;40271;48.798;10.178;2022-07-10T09:26:09;3.38;;;1.33;;
54372;SDS011;40271;48.798;10.178;2022-07-10T09:28:35;2.97;;;1.30;;
54372;SDS011;40271;48.798;10.178;2022-07-10T09:31:01;1.98;;;1.00;;
54372;SDS011;40271;48.798;10.178;2022-07-10T09:33:28;1.45;;;1.30;;
54372;SDS011;40271;48.798;10.178;2022-07-10T09:36:02;1.80;;;1.33;;
54372;SDS011;40271;48.798;10.178;2022-07-10T09:43:58;2.58;;;1.20;;
54372;SDS011;40271;48.798;10.178;2022-07-10T09:49:27;2.50;;;1.30;;
54372;SDS011;40271;48.798;10.178;2022-07-10T09:51:45;3.00;;;1.20;;
54372;SDS011;40271;48.798;10.178;2022-07-10T09:54:11;1.30;;;1.05;;
54372;SDS011;40271;48.798;10.178;2022-07-10T09:56:47;2.47;;;1.10;;
54372;SDS011;40271;48.798;10.178;2022-07-10T09:59:17;2.75;;;1.15;;
54372;SDS011;40271;48.798;10.178;2022-07-10T10:01:44;1.20;;;1.10;;
54372;SDS011;40271;48.798;10.178;2022-07-10T10:04:10;2.25;;;1.40;;
54372;SDS011;40271;48.798;10.178;2022-07-10T10:06:37;4.10;;;1.15;;
54372;SDS011;40271;48.798;10.178;2022-07-10T10:09:09;1.35;;;0.90;;
54372;SDS011;40271;48.798;10.178;2022-07-10T10:11:38;1.58;;;1.08;;
54372;SDS011;40271;48.798;10.178;2022-07-10T10:14:06;2.28;;;1.13;;
54372;SDS011;40271;48.798;10.178;2022-07-10T10:16:33;2.15;;;1.02;;
54372;SDS011;40271;48.798;10.178;2022-07-10T10:18:59;1.40;;;1.08;;
54372;SDS011;40271;48.798;10.178;2022-07-10T10:21:44;3.55;;;1.52;;
54372;SDS011;40271;48.798;10.178;2022-07-10T10:24:10;1.48;;;1.00;;
54372;SDS011;40271;48.798;10.178;2022-07-10T10:26:36;2.65;;;1.10;;
54372;SDS011;40271;48.798;10.178;2022-07-10T10:29:03;3.17;;;1.10;;
54372;SDS011;40271;48.798;10.178;2022-07-10T10:31:31;1.52;;;1.30;;
54372;SDS011;40271;48.798;10.178;2022-07-10T10:33:58;2.85;;;1.10;;
54372;SDS011;40271;48.798;10.178;2022-07-10T10:39:15;2.50;;;1.10;;
54372;SDS011;40271;48.798;10.178;2022-07-10T10:41:49;1.17;;;0.90;;
54372;SDS011;40271;48.798;10.178;2022-07-10T10:49:22;1.50;;;1.10;;
54372;SDS011;40271;48.798;10.178;2022-07-10T10:54:29;2.25;;;1.00;;
54372;SDS011;40271;48.798;10.178;2022-07-10T10:57:11;3.40;;;1.20;;
54372;SDS011;40271;48.798;10.178;2022-07-10T10:59:47;3.00;;;1.30;;
54372;SDS011;40271;48.798;10.178;2022-07-10T11:02:26;1.67;;;0.95;;
54372;SDS011;40271;48.798;10.178;2022-07-10T11:07:56;1.92;;;0.88;;
54372;SDS011;40271;48.798;10.178;2022-07-10T11:13:04;1.58;;;0.90;;
54372;SDS011;40271;48.798;10.178;2022-07-10T11:15:31;1.38;;;0.80;;
54372;SDS011;40271;48.798;10.178;2022-07-10T11:18:05;0.80;;;0.80;;
54372;SDS011;40271;48.798;10.178;2022-07-10T11:20:32;3.30;;;0.90;;
54372;SDS011;40271;48.798;10.178;2022-07-10T11:23:02;1.20;;;0.98;;
54372;SDS011;40271;48.798;10.178;2022-07-10T11:30:51;0.77;;;0.77;;
54372;SDS011;40271;48.798;10.178;2022-07-10T11:33:18;2.78;;;0.90;;
54372;SDS011;40271;48.798;10.178;2022-07-10T11:35:49;3.00;;;1.05;;
54372;SDS011;40271;48.798;10.178;2022-07-10T11:38:21;0.85;;;0.85;;
54372;SDS011;40271;48.798;10.178;2022-07-10T11:40:47;1.40;;;0.80;;
54372;SDS011;40271;48.798;10.178;2022-07-10T11:43:15;1.60;;;0.80;;
54372;SDS011;40271;48.798;10.178;2022-07-10T11:45:48;0.80;;;0.80;;
54372;SDS011;40271;48.798;10.178;2022-07-10T11:48:18;1.15;;;0.90;;
54372;SDS011;40271;48.798;10.178;2022-07-10T11:50:44;2.67;;;0.93;;
54372;SDS011;40271;48.798;10.178;2022-07-10T11:53:11;1.25;;;0.98;;
54372;SDS011;40271;48.798;10.178;2022-07-10T11:55:37;1.20;;;1.10;;
54372;SDS011;40271;48.798;10.178;2022-07-10T11:58:15;1.42;;;1.08;;
54372;SDS011;40271;48.798;10.178;2022-07-10T12:00:42;1.65;;;0.90;;
54372;SDS011;40271;48.798;10.178;2022-07-10T12:03:16;1.55;;;0.98;;
54372;SDS011;40271;48.798;10.178;2022-07-10T12:05:42;2.65;;;0.93;;
54372;SDS011;40271;48.798;10.178;2022-07-10T12:08:09;2.47;;;1.00;;
54372;SDS011;40271;48.798;10.178;2022-07-10T12:10:36;2.45;;;0.90;;
54372;SDS011;40271;48.798;10.178;2022-07-10T12:13:09;1.13;;;1.02;;
54372;SDS011;40271;48.798;10.178;2022-07-10T12:15:43;2.08;;;1.00;;
54372;SDS011;40271;48.798;10.178;2022-07-10T12:18:16;2.33;;;0.85;;
54372;SDS011;40271;48.798;10.178;2022-07-10T12:20:43;0.90;;;0.85;;
54372;SDS011;40271;48.798;10.178;2022-07-10T12:23:12;2.40;;;0.80;;
54372;SDS011;40271;48.798;10.178;2022-07-10T12:25:41;3.60;;;0.95;;
54372;SDS011;40271;48.798;10.178;2022-07-10T12:28:07;1.52;;;1.00;;
54372;SDS011;40271;48.798;10.178;2022-07-10T12:30:40;1.48;;;0.80;;
54372;SDS011;40271;48.798;10.178;2022-07-10T12:33:16;1.50;;;0.90;;
54372;SDS011;40271;48.798;10.178;2022-07-10T12:35:54;1.73;;;1.00;;
54372;SDS011;40271;48.798;10.178;2022-07-10T12:38:28;1.80;;;1.00;;
54372;SDS011;40271;48.798;10.178;2022-07-10T12:41:06;1.65;;;0.88;;
54372;SDS011;40271;48.798;10.178;2022-07-10T12:43:33;1.52;;;0.93;;
54372;SDS011;40271;48.798;10.178;2022-07-10T12:46:09;0.95;;;0.70;;
54372;SDS011;40271;48.798;10.178;2022-07-10T12:48:36;1.20;;;0.70;;
54372;SDS011;40271;48.798;10.178;2022-07-10T12:51:19;2.35;;;0.82;;
54372;SDS011;40271;48.798;10.178;2022-07-10T12:53:45;2.42;;;0.60;;
54372;SDS011;40271;48.798;10.178;2022-07-10T12:56:25;0.95;;;0.68;;
54372;SDS011;40271;48.798;10.178;2022-07-10T12:58:51;1.00;;;0.93;;
54372;SDS011;40271;48.798;10.178;2022-07-10T13:01:17;1.75;;;0.63;;
54372;SDS011;40271;48.798;10.178;2022-07-10T13:03:43;1.08;;;0.70;;
54372;SDS011;40271;48.798;10.178;2022-07-10T13:08:55;0.88;;;0.80;;
54372;SDS011;40271;48.798;10.178;2022-07-10T13:11:21;1.08;;;0.80;;
54372;SDS011;40271;48.798;10.178;2022-07-10T13:13:48;0.80;;;0.80;;
54372;SDS011;40271;48.798;10.178;2022-07-10T13:16:14;2.03;;;0.70;;
54372;SDS011;40271;48.798;10.178;2022-07-10T13:18:41;1.38;;;0.90;;
54372;SDS011;40271;48.798;10.178;2022-07-10T13:21:08;1.38;;;0.60;;
54372;SDS011;40271;48.798;10.178;2022-07-10T13:23:36;0.80;;;0.50;;
54372;SDS011;40271;48.798;10.178;2022-07-10T13:26:03;0.98;;;0.55;;
54372;SDS011;40271;48.798;10.178;2022-07-10T13:28:29;0.70;;;0.70;;
54372;SDS011;40271;48.798;10.178;2022-07-10T13:30:55;1.00;;;0.70;;
54372;SDS011;40271;48.798;10.178;2022-07-10T13:33:21;1.45;;;0.70;;
54372;SDS011;40271;48.798;10.178;2022-07-10T13:35:51;1.90;;;0.80;;
54372;SDS011;40271;48.798;10.178;2022-07-10T13:38:17;2.47;;;1.15;;
54372;SDS011;40271;48.798;10.178;2022-07-10T13:40:44;1.70;;;0.68;;
54372;SDS011;40271;48.798;10.178;2022-07-10T13:43:11;0.90;;;0.68;;
54372;SDS011;40271;48.798;10.178;2022-07-10T13:45:46;2.60;;;0.77;;
54372;SDS011;40271;48.798;10.178;2022-07-10T13:48:12;1.05;;;0.57;;
54372;SDS011;40271;48.798;10.178;2022-07-10T13:50:42;1.65;;;0.60;;
54372;SDS011;40271;48.798;10.178;2022-07-10T13:53:08;0.95;;;0.65;;
54372;SDS011;40271;48.798;10.178;2022-07-10T13:55:35;0.60;;;0.60;;
54372;SDS011;40271;48.798;10.178;2022-07-10T13:58:01;1.55;;;0.90;;
54372;SDS011;40271;48.798;10.178;2022-07-10T14:00:30;0.80;;;0.60;;
54372;SDS011;40271;48.798;10.178;2022-07-10T14:02:56;1.42;;;0.70;;
54372;SDS011;40271;48.798;10.178;2022-07-10T14:05:25;2.40;;;0.65;;
54372;SDS011;40271;48.798;10.178;2022-07-10T14:07:51;2.10;;;0.80;;
54372;SDS011;40271;48.798;10.178;2022-07-10T14:10:17;1.95;;;0.80;;
54372;SDS011;40271;48.798;10.178;2022-07-10T14:12:43;2.20;;;0.95;;
54372;SDS011;40271;48.798;10.178;2022-07-10T14:15:10;1.52;;;0.70;;
54372;SDS011;40271;48.798;10.178;2022-07-10T14:17:36;0.80;;;0.77;;
54372;SDS011;40271;48.798;10.178;2022-07-10T14:20:02;1.48;;;0.70;;
54372;SDS011;40271;48.798;10.178;2022-07-10T14:22:28;1.48;;;0.70;;
54372;SDS011;40271;48.798;10.178;2022-07-10T14:24:55;1.83;;;0.77;;
54372;SDS011;40271;48.798;10.178;2022-07-10T14:27:22;0.82;;;0.68;;
54372;SDS011;40271;48.798;10.178;2022-07-10T14:29:52;1.77;;;0.82;;
54372;SDS011;40271;48.798;10.178;2022-07-10T14:32:19;0.82;;;0.70;;
54372;SDS011;40271;48.798;10.178;2022-07-10T14:34:45;2.33;;;0.70;;
54372;SDS011;40271;48.798;10.178;2022-07-10T14:37:11;0.77;;;0.70;;
54372;SDS011;40271;48.798;10.178;2022-07-10T14:39:37;1.10;;;0.70;;
54372;SDS011;40271;48.798;10.178;2022-07-10T14:42:03;2.40;;;0.80;;
54372;SDS011;40271;48.798;10.178;2022-07-10T14:44:30;2.05;;;0.80;;
54372;SDS011;40271;48.798;10.178;2022-07-10T14:46:56;0.93;;;0.70;;
54372;SDS011;40271;48.798;10.178;2022-07-10T14:49:22;1.15;;;0.70;;
54372;SDS011;40271;48.798;10.178;2022-07-10T14:51:48;1.50;;;0.70;;
54372;SDS011;40271;48.798;10.178;2022-07-10T14:54:14;0.95;;;0.60;;
54372;SDS011;40271;48.798;10.178;2022-07-10T14:56:41;1.63;;;0.80;;
54372;SDS011;40271;48.798;10.178;2022-07-10T14:59:08;1.65;;;0.80;;
54372;SDS011;40271;48.798;10.178;2022-07-10T15:01:34;1.17;;;0.60;;
54372;SDS011;40271;48.798;10.178;2022-07-10T15:04:00;1.65;;;0.98;;
54372;SDS011;40271;48.798;10.178;2022-07-10T15:06:26;3.63;;;0.80;;
54372;SDS011;40271;48.798;10.178;2022-07-10T15:08:52;1.17;;;0.80;;
54372;SDS011;40271;48.798;10.178;2022-07-10T15:11:18;1.23;;;0.50;;